Time;durP1;ratioP1;P1;durP2;ratioP2;P2;SDS_P1;SDS_P2;PMS_P1;PMS_P2;Temp;Humidity;BMP_temperature;BMP_pressure;BME280_temperature;BME280_humidity;BME280_pressure;Samples;Min_cycle;Max_cycle;Signal;HPM_P1;HPM_P2
2022/11/29 00:01:20;;;;;;;46.28;23.33;;;11.10;85.60;;;;;;5035844;28;20034;-63
2022/11/29 00:03:46;;;;;;;46.90;21.98;;;11.10;85.60;;;;;;5034135;28;20083;-63
2022/11/29 00:06:14;;;;;;;45.50;21.85;;;11.00;85.60;;;;;;5036169;28;20080;-63
2022/11/29 00:08:41;;;;;;;49.70;22.52;;;11.10;85.60;;;;;;5035802;28;20040;-66
2022/11/29 00:11:10;;;;;;;51.95;22.90;;;11.10;85.60;;;;;;5035343;28;20135;-63
2022/11/29 00:13:35;;;;;;;47.97;22.02;;;11.10;85.60;;;;;;5034953;28;20110;-63
2022/11/29 00:16:09;;;;;;;48.17;21.60;;;11.10;85.60;;;;;;5035657;28;20064;-63
2022/11/29 00:18:35;;;;;;;46.42;21.65;;;11.10;85.60;;;;;;5034123;28;20041;-63
2022/11/29 00:21:06;;;;;;;48.17;22.13;;;11.10;85.60;;;;;;5035828;28;20099;-64
2022/11/29 00:23:32;;;;;;;51.03;20.35;;;11.10;85.60;;;;;;5035626;28;20025;-65
2022/11/29 00:26:07;;;;;;;44.13;21.05;;;11.10;85.60;;;;;;5035858;28;20036;-64
2022/11/29 00:28:34;;;;;;;51.35;21.38;;;11.10;85.60;;;;;;5048406;28;20438;-64
2022/11/29 00:31:00;;;;;;;45.28;20.17;;;11.00;85.50;;;;;;5035734;28;20079;-64
2022/11/29 00:33:27;;;;;;;49.00;21.48;;;11.00;85.60;;;;;;5034059;28;20049;-64
2022/11/29 00:35:52;;;;;;;44.65;20.17;;;11.00;85.60;;;;;;5046938;28;20029;-64
2022/11/29 00:38:18;;;;;;;40.80;17.02;;;11.00;85.60;;;;;;5035867;28;20033;-64
2022/11/29 00:40:49;;;;;;;37.30;18.42;;;11.00;85.50;;;;;;5010302;28;20118;-64
2022/11/29 00:43:14;;;;;;;43.43;19.03;;;11.00;85.50;;;;;;5047252;28;20039;-64
2022/11/29 00:45:40;;;;;;;42.40;19.63;;;11.00;85.50;;;;;;5034414;28;20108;-64
2022/11/29 00:48:05;;;;;;;42.35;19.65;;;11.00;85.40;;;;;;5033758;28;20036;-64
2022/11/29 00:50:31;;;;;;;47.85;20.52;;;11.00;85.40;;;;;;5035463;28;20036;-64
2022/11/29 00:52:57;;;;;;;47.80;20.45;;;11.00;85.70;;;;;;5034264;28;20029;-65
2022/11/29 00:55:22;;;;;;;45.67;20.65;;;11.00;85.40;;;;;;5030590;28;20030;-64
2022/11/29 00:57:48;;;;;;;42.78;18.35;;;11.00;85.50;;;;;;5034934;28;20460;-64
2022/11/29 01:00:14;;;;;;;49.38;20.20;;;11.00;85.50;;;;;;5035804;28;20033;-64
2022/11/29 01:02:40;;;;;;;48.05;20.38;;;11.00;85.50;;;;;;5031024;28;20045;-64
2022/11/29 01:05:06;;;;;;;43.78;19.02;;;11.00;85.50;;;;;;5034377;28;20033;-64
2022/11/29 01:07:31;;;;;;;52.35;22.42;;;11.00;85.40;;;;;;5034608;28;20036;-64
2022/11/29 01:09:57;;;;;;;52.13;20.50;;;11.00;85.40;;;;;;5034856;28;20120;-64
2022/11/29 01:12:22;;;;;;;47.85;21.63;;;11.00;85.40;;;;;;5039938;28;20044;-64
2022/11/29 01:14:48;;;;;;;52.65;20.35;;;11.00;85.40;;;;;;5051244;28;20025;-64
2022/11/29 01:17:14;;;;;;;55.10;22.83;;;11.00;85.40;;;;;;5034911;28;20029;-64
2022/11/29 01:19:39;;;;;;;50.75;20.48;;;11.00;85.50;;;;;;5033515;28;20133;-64
2022/11/29 01:22:05;;;;;;;52.33;21.70;;;11.00;85.50;;;;;;5034409;28;20104;-64
2022/11/29 01:24:30;;;;;;;54.00;20.58;;;11.00;85.40;;;;;;5033793;28;20039;-64
2022/11/29 01:26:56;;;;;;;52.17;22.40;;;11.00;85.40;;;;;;5034360;28;20477;-64
2022/11/29 01:29:22;;;;;;;53.33;21.98;;;11.00;85.40;;;;;;5032182;28;20029;-64
2022/11/29 01:31:47;;;;;;;50.05;21.35;;;11.10;85.40;;;;;;5034107;28;20036;-64
2022/11/29 01:34:13;;;;;;;47.92;22.13;;;11.10;85.40;;;;;;5033148;28;20036;-64
2022/11/29 01:36:38;;;;;;;52.10;22.02;;;11.00;85.30;;;;;;5044896;28;20083;-64
2022/11/29 01:39:05;;;;;;;52.45;21.88;;;11.00;85.30;;;;;;5036191;28;20029;-64
2022/11/29 01:41:33;;;;;;;50.03;21.67;;;11.00;85.30;;;;;;5048719;28;20180;-64
2022/11/29 01:44:10;;;;;;;48.50;21.20;;;11.00;85.30;;;;;;5034232;28;20030;-64
2022/11/29 01:46:39;;;;;;;49.10;19.92;;;11.00;85.30;;;;;;5050790;28;20072;-64
2022/11/29 01:49:14;;;;;;;47.45;20.55;;;11.00;85.30;;;;;;5039040;28;20117;-64
2022/11/29 01:51:44;;;;;;;51.90;21.40;;;11.00;85.30;;;;;;5045680;28;20021;-64
2022/11/29 01:54:11;;;;;;;51.05;21.48;;;11.00;85.30;;;;;;5034013;28;20116;-64
2022/11/29 01:56:38;;;;;;;48.25;21.08;;;11.00;85.30;;;;;;5034340;28;20029;-64
2022/11/29 01:59:07;;;;;;;49.78;21.17;;;11.00;85.30;;;;;;5032464;28;20025;-64
2022/11/29 02:01:34;;;;;;;43.92;20.90;;;11.00;85.30;;;;;;5043474;28;20115;-64
2022/11/29 02:04:00;;;;;;;53.65;20.83;;;11.00;85.30;;;;;;5027414;28;20434;-64
2022/11/29 02:06:28;;;;;;;49.13;20.35;;;11.00;85.30;;;;;;5034126;28;20120;-64
2022/11/29 02:08:54;;;;;;;52.20;21.35;;;11.00;85.40;;;;;;5033961;28;20393;-64
2022/11/29 02:12:01;;;;;;;49.70;21.05;;;11.00;85.40;;;;;;5020982;28;20096;-65
2022/11/29 02:14:51;;;;;;;53.70;21.95;;;11.00;85.30;;;;;;5033997;28;20030;-65
2022/11/29 02:17:50;;;;;;;53.95;23.23;;;11.00;85.40;;;;;;5034949;28;20361;-65
2022/11/29 02:20:42;;;;;;;45.67;21.10;;;11.00;85.30;;;;;;5032757;28;20064;-65
2022/11/29 02:23:39;;;;;;;48.95;19.92;;;11.00;85.30;;;;;;5039135;28;20100;-65
2022/11/29 02:26:35;;;;;;;47.72;21.23;;;11.00;85.30;;;;;;5029668;28;20040;-65
2022/11/29 02:29:30;;;;;;;45.60;20.00;;;11.00;85.40;;;;;;5033887;28;20123;-65
2022/11/29 02:32:33;;;;;;;42.80;18.60;;;11.00;85.30;;;;;;4993077;28;20038;-65
2022/11/29 02:35:10;;;;;;;47.35;20.42;;;11.00;85.40;;;;;;5022527;28;20548;-65
2022/11/29 02:37:57;;;;;;;49.72;19.17;;;11.00;85.40;;;;;;5050298;28;20026;-65
2022/11/29 02:41:00;;;;;;;47.90;19.73;;;10.90;85.40;;;;;;5036250;28;20040;-65
2022/11/29 02:44:07;;;;;;;53.22;21.17;;;11.00;85.40;;;;;;5040355;28;20025;-65
2022/11/29 02:47:22;;;;;;;50.20;19.92;;;10.90;85.30;;;;;;5036879;28;20362;-65
2022/11/29 02:50:17;;;;;;;48.65;20.63;;;11.00;85.40;;;;;;5022671;28;20029;-64
2022/11/29 02:53:05;;;;;;;51.05;21.75;;;10.90;85.40;;;;;;5031984;28;20415;-63
2022/11/29 02:55:42;;;;;;;52.35;20.10;;;10.90;85.40;;;;;;5035900;28;20087;-65
2022/11/29 02:58:31;;;;;;;52.30;20.88;;;10.90;85.50;;;;;;5039725;28;20469;-65
2022/11/29 03:01:01;;;;;;;52.92;20.67;;;10.90;85.50;;;;;;5018141;28;20037;-65
2022/11/29 03:03:35;;;;;;;57.40;23.23;;;10.90;85.50;;;;;;5037521;28;20061;-62
2022/11/29 03:06:09;;;;;;;48.13;19.75;;;10.90;85.50;;;;;;5038306;28;20123;-62
2022/11/29 03:09:06;;;;;;;49.53;19.90;;;10.90;85.50;;;;;;5038634;28;20037;-63
2022/11/29 03:11:57;;;;;;;53.67;21.85;;;10.90;85.40;;;;;;5039023;28;20044;-62
2022/11/29 03:14:27;;;;;;;48.17;20.83;;;10.90;85.40;;;;;;5028724;28;20033;-62
2022/11/29 03:17:11;;;;;;;56.15;21.98;;;10.90;85.50;;;;;;5033301;28;20103;-62
2022/11/29 03:19:54;;;;;;;56.22;21.92;;;10.90;85.50;;;;;;5039068;28;20485;-63
2022/11/29 03:23:00;;;;;;;51.50;23.90;;;10.90;85.50;;;;;;5033647;28;20120;-63
2022/11/29 03:25:31;;;;;;;53.92;20.77;;;10.90;85.60;;;;;;5021694;28;20501;-62
2022/11/29 03:28:01;;;;;;;48.03;20.80;;;10.90;85.50;;;;;;5036297;28;20049;-63
2022/11/29 03:30:30;;;;;;;50.55;21.30;;;10.90;85.50;;;;;;5055678;28;20103;-62
2022/11/29 03:33:10;;;;;;;50.65;23.35;;;11.00;85.60;;;;;;5038928;28;20464;-62
2022/11/29 03:35:46;;;;;;;51.92;21.25;;;11.00;85.60;;;;;;5040527;28;20048;-62
2022/11/29 03:38:37;;;;;;;53.58;22.13;;;11.00;85.60;;;;;;5051220;28;20088;-63
2022/11/29 03:41:09;;;;;;;48.55;21.17;;;11.00;85.60;;;;;;5040031;28;20052;-63
2022/11/29 03:43:44;;;;;;;;;;;11.00;85.60;;;;;;5040028;28;20048;-62
2022/11/29 03:46:36;;;;;;;50.70;21.67;;;10.90;85.50;;;;;;5039548;28;19948;-63
2022/11/29 03:49:14;;;;;;;48.85;20.33;;;10.90;85.50;;;;;;5039283;28;20037;-62
2022/11/29 03:52:06;;;;;;;55.65;23.23;;;10.90;85.50;;;;;;5036983;28;20079;-63
2022/11/29 03:54:45;;;;;;;45.75;20.63;;;10.90;85.50;;;;;;5017761;28;20026;-63
2022/11/29 03:57:16;;;;;;;54.55;22.83;;;10.90;85.60;;;;;;5034970;28;20041;-63
2022/11/29 03:59:58;;;;;;;51.70;21.42;;;10.90;85.60;;;;;;5036065;28;20095;-63
2022/11/29 04:02:48;;;;;;;54.78;21.23;;;10.90;85.60;;;;;;5035643;28;20057;-63
2022/11/29 04:05:46;;;;;;;56.35;21.98;;;10.90;85.60;;;;;;5037264;28;20542;-63
2022/11/29 04:08:33;;;;;;;48.03;20.33;;;10.90;85.60;;;;;;5035551;28;20060;-62
2022/11/29 04:11:30;;;;;;;52.03;23.30;;;10.90;85.60;;;;;;5036345;28;20025;-63
2022/11/29 04:14:26;;;;;;;49.58;21.15;;;10.90;85.60;;;;;;5035082;28;20057;-63
2022/11/29 04:17:19;;;;;;;46.85;20.63;;;10.90;85.50;;;;;;5036939;28;20033;-63
2022/11/29 04:20:09;;;;;;;49.72;21.02;;;10.90;85.60;;;;;;5035812;28;20056;-63
2022/11/29 04:23:01;;;;;;;50.63;20.60;;;10.90;85.60;;;;;;5035177;28;20044;-63
2022/11/29 04:25:42;;;;;;;49.10;20.83;;;10.90;85.70;;;;;;5031451;28;20030;-63
2022/11/29 04:28:20;;;;;;;52.45;21.10;;;10.90;85.70;;;;;;5035703;28;20029;-63
2022/11/29 04:31:03;;;;;;;53.63;21.65;;;10.90;85.70;;;;;;5035484;28;20087;-63
2022/11/29 04:33:59;;;;;;;50.42;19.45;;;10.90;85.60;;;;;;5030412;28;20018;-63
2022/11/29 04:36:55;;;;;;;48.30;18.70;;;10.90;85.60;;;;;;5036839;28;20112;-65
2022/11/29 04:39:38;;;;;;;48.53;19.73;;;10.90;85.60;;;;;;5047536;28;20040;-65
2022/11/29 04:42:32;;;;;;;47.10;18.23;;;10.90;85.60;;;;;;5035122;28;20272;-65
2022/11/29 04:45:13;;;;;;;45.20;19.80;;;10.90;85.50;;;;;;5025752;28;20046;-65
2022/11/29 04:48:12;;;;;;;45.03;18.67;;;10.90;85.60;;;;;;5022139;28;20401;-65
2022/11/29 04:50:46;;;;;;;51.10;19.00;;;10.90;85.50;;;;;;5033701;28;20423;-65
2022/11/29 04:53:36;;;;;;;51.20;20.15;;;10.90;85.50;;;;;;5034848;28;20080;-65
2022/11/29 04:56:18;;;;;;;50.05;20.73;;;10.90;85.50;;;;;;5034576;28;20107;-65
2022/11/29 04:59:08;;;;;;;49.10;21.00;;;10.90;85.50;;;;;;5035690;28;20064;-65
2022/11/29 05:02:16;;;;;;;51.35;20.63;;;10.90;85.50;;;;;;5035201;28;20029;-65
2022/11/29 05:05:13;;;;;;;49.28;19.80;;;10.90;85.50;;;;;;5033010;28;20095;-65
2022/11/29 05:08:11;;;;;;;47.92;20.17;;;10.90;85.50;;;;;;5018069;28;20033;-63
2022/11/29 05:10:48;;;;;;;56.38;21.58;;;10.90;85.50;;;;;;5032217;28;20462;-62
2022/11/29 05:13:35;;;;;;;50.38;21.60;;;10.80;85.50;;;;;;5033035;28;20382;-62
2022/11/29 05:16:10;;;;;;;53.03;21.27;;;10.80;85.50;;;;;;5032918;28;20065;-62
2022/11/29 05:19:08;;;;;;;52.20;20.33;;;10.80;85.60;;;;;;5032724;28;20513;-66
2022/11/29 05:22:11;;;;;;;53.08;21.90;;;10.80;85.60;;;;;;5019872;28;20129;-65
2022/11/29 05:25:33;;;;;;;45.38;19.35;;;10.80;85.60;;;;;;5012529;28;20038;-65
2022/11/29 05:28:08;;;;;;;47.83;20.05;;;10.80;85.60;;;;;;4992433;28;20152;-65
2022/11/29 05:31:11;;;;;;;47.08;18.92;;;10.80;85.60;;;;;;4988744;28;20042;-63
2022/11/29 05:33:55;;;;;;;46.03;20.73;;;10.80;85.60;;;;;;4985473;28;20357;-63
2022/11/29 05:36:39;;;;;;;51.28;19.88;;;10.80;85.60;;;;;;4993772;28;20480;-63
2022/11/29 05:39:26;;;;;;;50.03;20.15;;;10.80;85.70;;;;;;4975190;28;20113;-62
2022/11/29 05:42:16;;;;;;;51.25;19.42;;;10.80;85.70;;;;;;4976745;28;20038;-63
2022/11/29 05:44:54;;;;;;;52.55;20.05;;;10.80;85.70;;;;;;4962576;28;20031;-64
2022/11/29 05:47:37;;;;;;;45.50;18.23;;;10.80;85.70;;;;;;4970942;28;20125;-62
2022/11/29 05:50:09;;;;;;;47.45;20.42;;;10.80;85.70;;;;;;4971995;28;20041;-63
2022/11/29 05:52:40;;;;;;;47.55;20.67;;;10.80;85.70;;;;;;4968687;28;20039;-62
2022/11/29 05:55:40;;;;;;;55.25;22.92;;;10.80;85.70;;;;;;4964181;28;20039;-63
2022/11/29 05:58:41;;;;;;;50.55;21.58;;;10.80;85.60;;;;;;4974693;28;20046;-62
2022/11/29 06:01:24;;;;;;;55.65;22.20;;;10.80;85.70;;;;;;4994161;28;20046;-63
2022/11/29 06:04:20;;;;;;;59.65;23.13;;;10.80;85.80;;;;;;4983139;28;20038;-62
2022/11/29 06:07:10;;;;;;;60.50;23.95;;;10.80;85.80;;;;;;4983548;28;20130;-63
2022/11/29 06:09:51;;;;;;;63.28;22.50;;;10.80;85.70;;;;;;4988050;28;20026;-63
2022/11/29 06:12:23;;;;;;;58.30;21.85;;;10.80;85.80;;;;;;4991133;28;20022;-63
2022/11/29 06:15:22;;;;;;;53.97;20.77;;;10.80;85.80;;;;;;4990467;28;20069;-62
2022/11/29 06:18:16;;;;;;;56.63;20.45;;;10.80;85.80;;;;;;4994495;28;20045;-63
2022/11/29 06:20:53;;;;;;;54.42;21.27;;;10.80;85.80;;;;;;5028085;28;20056;-63
2022/11/29 06:23:43;;;;;;;64.35;23.30;;;10.70;85.80;;;;;;5030648;28;20086;-63
2022/11/29 06:26:43;;;;;;;53.78;20.48;;;10.80;85.90;;;;;;5031076;28;20426;-63
2022/11/29 06:29:28;;;;;;;55.47;20.58;;;10.80;85.80;;;;;;5029208;28;20032;-63
2022/11/29 06:32:03;;;;;;;59.28;22.80;;;10.80;85.90;;;;;;5034663;28;20108;-63
2022/11/29 06:34:46;;;;;;;49.97;20.98;;;10.80;85.90;;;;;;5034692;28;20037;-63
2022/11/29 06:37:28;;;;;;;47.78;18.83;;;10.80;85.90;;;;;;5034897;28;20427;-62
2022/11/29 06:39:54;;;;;;;44.75;18.77;;;10.80;85.90;;;;;;5034788;28;20056;-63
2022/11/29 06:42:20;;;;;;;49.92;19.40;;;10.80;85.80;;;;;;5033941;28;20037;-63
2022/11/29 06:44:46;;;;;;;48.63;18.88;;;10.70;85.80;;;;;;5050244;28;20041;-63
2022/11/29 06:47:26;;;;;;;40.60;18.40;;;10.70;85.70;;;;;;5034649;28;20083;-63
2022/11/29 06:50:07;;;;;;;49.72;19.00;;;10.70;85.80;;;;;;5034759;28;20446;-62
2022/11/29 06:53:04;;;;;;;45.13;16.60;;;10.70;85.80;;;;;;5034815;28;20025;-62
2022/11/29 06:55:50;;;;;;;41.60;17.52;;;10.70;85.80;;;;;;5028413;28;20112;-63
2022/11/29 06:58:31;;;;;;;48.78;17.48;;;10.70;85.80;;;;;;5033146;28;20042;-63
2022/11/29 07:01:12;;;;;;;49.97;19.08;;;10.70;85.80;;;;;;5034252;28;20029;-62
2022/11/29 07:04:01;;;;;;;44.63;17.17;;;10.70;85.90;;;;;;5023484;28;20041;-65
2022/11/29 07:06:28;;;;;;;37.70;16.02;;;10.70;86.50;;;;;;5033530;28;20041;-65
2022/11/29 07:09:14;;;;;;;45.70;18.13;;;10.70;85.90;;;;;;5034358;28;20057;-63
2022/11/29 07:11:40;;;;;;;49.75;19.25;;;10.70;85.80;;;;;;5033486;28;20040;-63
2022/11/29 07:14:07;;;;;;;47.65;18.77;;;10.70;85.80;;;;;;5034519;28;20022;-63
2022/11/29 07:16:39;;;;;;;50.88;19.52;;;10.70;85.80;;;;;;5034493;28;20367;-62
2022/11/29 07:19:19;;;;;;;46.35;17.95;;;10.70;85.80;;;;;;5032384;28;20049;-62
2022/11/29 07:21:55;;;;;;;47.95;19.88;;;10.70;85.70;;;;;;5014732;28;20034;-63
2022/11/29 07:24:30;;;;;;;47.40;19.90;;;10.70;85.70;;;;;;5041585;28;20044;-62
2022/11/29 07:27:07;;;;;;;45.42;18.42;;;10.70;85.70;;;;;;5030336;28;20041;-65
2022/11/29 07:30:05;;;;;;;49.20;20.90;;;10.70;85.70;;;;;;5029529;28;20346;-63
2022/11/29 07:33:08;;;;;;;38.78;15.75;;;10.80;85.70;;;;;;5036208;28;20025;-63
2022/11/29 07:35:52;;;;;;;37.25;16.13;;;10.70;85.70;;;;;;5036334;28;20103;-63
2022/11/29 07:38:39;;;;;;;41.97;16.38;;;10.80;85.70;;;;;;5037931;28;20030;-62
2022/11/29 07:41:16;;;;;;;36.20;15.82;;;10.70;85.60;;;;;;5037197;28;20091;-64
2022/11/29 07:43:56;;;;;;;39.03;15.02;;;10.80;85.70;;;;;;5037749;28;20124;-64
2022/11/29 07:46:22;;;;;;;33.55;14.80;;;10.80;85.60;;;;;;5037195;28;20370;-65
2022/11/29 07:48:47;;;;;;;34.42;13.82;;;10.80;85.50;;;;;;5037363;28;20028;-65
2022/11/29 07:51:13;;;;;;;34.55;14.70;;;10.80;85.50;;;;;;5037305;28;20101;-65
2022/11/29 07:53:43;;;;;;;35.35;14.73;;;10.80;85.40;;;;;;5029969;28;20032;-64
2022/11/29 07:56:09;;;;;;;36.50;15.50;;;10.80;85.40;;;;;;5019098;28;20021;-64
2022/11/29 07:58:35;;;;;;;34.80;14.77;;;10.80;85.30;;;;;;5036733;28;20041;-63
2022/11/29 08:01:01;;;;;;;37.25;16.13;;;10.80;85.20;;;;;;5033287;28;20037;-63
2022/11/29 08:03:27;;;;;;;42.92;17.83;;;10.80;85.20;;;;;;5035440;28;20071;-62
2022/11/29 08:05:53;;;;;;;35.60;14.95;;;10.80;85.20;;;;;;5035881;28;20517;-62
2022/11/29 08:08:19;;;;;;;35.75;15.00;;;10.80;85.20;;;;;;5036728;28;20029;-63
2022/11/29 08:10:45;;;;;;;42.63;17.15;;;10.80;85.30;;;;;;5034917;28;20377;-65
2022/11/29 08:13:11;;;;;;;45.47;16.80;;;10.80;85.30;;;;;;5035461;28;20037;-64
2022/11/29 08:15:42;;;;;;;48.13;17.88;;;10.80;85.30;;;;;;5033575;28;20362;-64
2022/11/29 08:18:08;;;;;;;45.20;18.27;;;10.80;85.30;;;;;;5035940;28;20465;-64
2022/11/29 08:20:34;;;;;;;38.70;16.58;;;10.70;85.30;;;;;;5036717;28;20057;-64
2022/11/29 08:23:00;;;;;;;40.95;16.92;;;10.80;85.40;;;;;;5036853;28;20033;-64
2022/11/29 08:25:26;;;;;;;43.08;15.75;;;10.70;85.40;;;;;;5035973;28;20029;-64
2022/11/29 08:27:53;;;;;;;38.97;16.92;;;10.80;85.40;;;;;;5052511;28;20533;-64
2022/11/29 08:30:21;;;;;;;40.47;16.33;;;10.70;85.40;;;;;;5036894;28;20021;-64
2022/11/29 08:32:48;;;;;;;41.92;17.40;;;10.70;85.40;;;;;;5036956;28;20068;-64
2022/11/29 08:35:15;;;;;;;36.13;15.50;;;10.70;85.50;;;;;;5035900;28;20033;-64
2022/11/29 08:37:40;;;;;;;47.75;17.35;;;10.70;85.40;;;;;;5051657;28;20037;-64
2022/11/29 08:40:06;;;;;;;39.35;16.55;;;10.70;85.50;;;;;;5036440;28;20052;-64
2022/11/29 08:42:32;;;;;;;40.25;17.02;;;10.70;85.50;;;;;;5036577;28;20447;-64
2022/11/29 08:44:58;;;;;;;38.22;16.35;;;10.70;85.50;;;;;;5036317;28;20032;-64
2022/11/29 08:47:35;;;;;;;33.80;15.23;;;10.70;85.50;;;;;;5036318;28;20392;-64
2022/11/29 08:50:13;;;;;;;31.27;14.40;;;10.70;85.60;;;;;;5035473;28;20032;-64
2022/11/29 08:55:41;;;;;;;29.25;12.57;;;10.70;85.50;;;;;;5036347;28;20089;-64
2022/11/29 08:58:12;;;;;;;36.47;13.60;;;10.70;85.40;;;;;;5036218;28;20029;-64
2022/11/29 09:00:38;;;;;;;27.70;12.52;;;10.70;85.50;;;;;;5052000;28;20029;-64
2022/11/29 09:05:50;;;;;;;31.90;12.52;;;10.80;85.50;;;;;;5035359;28;20454;-64
2022/11/29 09:08:16;;;;;;;29.00;13.40;;;10.80;85.50;;;;;;5034685;28;20053;-64
2022/11/29 09:10:42;;;;;;;30.60;13.38;;;10.80;85.50;;;;;;5035283;28;20076;-64
2022/11/29 09:13:09;;;;;;;28.90;13.07;;;10.80;85.40;;;;;;5035169;28;20113;-64
2022/11/29 09:15:36;;;;;;;28.05;12.43;;;10.80;85.40;;;;;;5035270;28;20041;-64
2022/11/29 09:18:04;;;;;;;29.83;12.90;;;10.80;85.40;;;;;;5035845;28;20497;-64
2022/11/29 09:20:29;;;;;;;30.27;13.20;;;10.80;85.40;;;;;;5035070;28;20073;-64
2022/11/29 09:22:57;;;;;;;27.00;12.30;;;10.80;85.40;;;;;;5035379;28;20473;-64
2022/11/29 09:25:23;;;;;;;26.63;11.80;;;10.80;85.40;;;;;;5035458;28;20449;-64
2022/11/29 09:27:48;;;;;;;24.95;10.68;;;10.80;85.30;;;;;;5035664;28;20025;-64
2022/11/29 09:30:14;;;;;;;26.02;11.20;;;10.80;85.40;;;;;;5035389;28;20043;-64
2022/11/29 09:32:40;;;;;;;25.35;10.75;;;10.80;85.30;;;;;;5051172;28;20051;-64
2022/11/29 09:35:06;;;;;;;23.73;10.35;;;10.80;85.20;;;;;;5035542;28;20052;-64
2022/11/29 09:37:32;;;;;;;26.35;10.70;;;10.80;85.20;;;;;;5035482;28;20124;-64
2022/11/29 09:39:57;;;;;;;24.20;9.82;;;10.80;85.20;;;;;;5034504;28;20091;-64
2022/11/29 09:42:38;;;;;;;29.02;11.85;;;10.80;85.20;;;;;;5035211;28;20080;-64
2022/11/29 09:45:08;;;;;;;27.35;11.23;;;10.80;85.10;;;;;;5050778;28;20049;-64
2022/11/29 09:47:54;;;;;;;27.88;11.85;;;10.80;85.10;;;;;;5050611;28;20060;-64
2022/11/29 09:50:41;;;;;;;25.20;11.20;;;10.80;85.00;;;;;;5034246;28;20026;-64
2022/11/29 09:53:36;;;;;;;32.53;12.60;;;10.80;85.50;;;;;;5035157;28;20072;-64
2022/11/29 09:56:27;;;;;;;26.83;11.73;;;10.80;84.90;;;;;;5034947;28;20044;-64
2022/11/29 09:58:59;;;;;;;27.88;11.57;;;10.80;84.90;;;;;;5033477;28;20060;-64
2022/11/29 10:01:32;;;;;;;26.88;11.05;;;10.80;85.00;;;;;;5050733;28;20338;-64
2022/11/29 10:04:02;;;;;;;25.58;10.65;;;10.80;84.90;;;;;;5035330;28;20036;-64
2022/11/29 10:06:38;;;;;;;25.00;11.20;;;10.80;85.00;;;;;;5035439;28;20044;-64
2022/11/29 10:09:19;;;;;;;26.30;11.13;;;10.80;85.00;;;;;;5033798;28;20033;-64
2022/11/29 10:12:09;;;;;;;25.30;10.88;;;10.80;85.00;;;;;;5033734;28;20048;-64
2022/11/29 10:15:29;;;;;;;23.80;10.60;;;10.90;84.90;;;;;;5034788;28;20076;-64
2022/11/29 10:18:02;;;;;;;24.58;10.90;;;10.90;84.80;;;;;;5031855;28;20139;-64
2022/11/29 10:20:38;;;;;;;23.13;9.63;;;10.90;84.80;;;;;;5031587;28;20049;-64
2022/11/29 10:23:32;;;;;;;24.98;11.98;;;10.90;85.50;;;;;;5033239;28;20033;-64
2022/11/29 10:25:58;;;;;;;22.52;10.32;;;10.90;84.90;;;;;;5024450;28;20096;-64
2022/11/29 10:28:29;;;;;;;24.23;11.07;;;10.90;84.90;;;;;;5031851;28;20107;-64
2022/11/29 10:31:00;;;;;;;26.27;11.50;;;10.90;84.80;;;;;;5032961;28;20048;-64
2022/11/29 10:33:29;;;;;;;28.38;11.57;;;11.00;84.80;;;;;;5032879;28;20350;-64
2022/11/29 10:35:57;;;;;;;27.75;12.68;;;11.00;84.70;;;;;;5032683;28;20029;-65
2022/11/29 10:38:23;;;;;;;29.25;11.45;;;11.00;84.80;;;;;;5032707;28;20064;-64
2022/11/29 10:41:06;;;;;;;28.92;11.35;;;11.00;84.80;;;;;;5032460;28;20034;-64
2022/11/29 10:43:32;;;;;;;25.67;11.43;;;11.00;84.80;;;;;;5031692;28;20046;-64
2022/11/29 10:45:59;;;;;;;25.48;11.27;;;11.00;84.70;;;;;;5015774;28;20041;-65
2022/11/29 10:48:30;;;;;;;26.50;11.70;;;11.00;84.70;;;;;;5032347;28;20079;-64
2022/11/29 10:50:56;;;;;;;26.98;11.90;;;11.00;84.80;;;;;;5030367;28;20686;-65
2022/11/29 10:53:25;;;;;;;25.33;11.50;;;11.00;84.80;;;;;;5014448;28;20517;-65
2022/11/29 10:56:30;;;;;;;21.50;10.73;;;11.00;84.80;;;;;;5014489;28;20508;-65
2022/11/29 10:59:02;;;;;;;25.42;10.95;;;11.10;84.70;;;;;;5030756;28;20091;-66
2022/11/29 11:01:30;;;;;;;23.67;10.32;;;11.10;84.70;;;;;;5035938;28;20044;-65
2022/11/29 11:03:58;;;;;;;23.42;11.25;;;11.10;84.70;;;;;;5038382;28;20030;-64
2022/11/29 11:06:44;;;;;;;26.35;11.35;;;11.10;84.90;;;;;;5037946;28;20430;-64
2022/11/29 11:09:15;;;;;;;21.83;10.63;;;11.20;84.60;;;;;;5036706;28;20025;-64
2022/11/29 11:11:50;;;;;;;19.35;9.75;;;11.20;84.60;;;;;;5053750;28;20029;-64
2022/11/29 11:14:25;;;;;;;19.73;9.88;;;11.20;84.60;;;;;;5038377;28;20033;-64
2022/11/29 11:16:51;;;;;;;23.00;9.93;;;11.10;84.50;;;;;;5036875;28;20051;-64
2022/11/29 11:19:31;;;;;;;23.58;10.30;;;11.10;84.60;;;;;;5036977;28;20158;-65
2022/11/29 11:22:01;;;;;;;24.40;11.32;;;11.10;84.60;;;;;;5037720;28;20029;-64
2022/11/29 11:24:30;;;;;;;20.88;10.45;;;11.10;84.60;;;;;;5052195;28;20034;-64
2022/11/29 11:26:57;;;;;;;25.15;10.70;;;11.10;84.60;;;;;;5037947;28;20499;-64
2022/11/29 11:29:38;;;;;;;23.10;10.63;;;11.20;84.60;;;;;;5037615;28;20052;-64
2022/11/29 11:32:06;;;;;;;21.02;10.93;;;11.20;84.50;;;;;;5037777;28;20025;-64
2022/11/29 11:34:34;;;;;;;26.85;10.85;;;11.20;84.50;;;;;;5036829;28;20029;-65
2022/11/29 11:37:20;;;;;;;25.17;10.35;;;11.20;84.50;;;;;;5037458;28;20032;-64
2022/11/29 11:39:48;;;;;;;22.48;10.18;;;11.20;84.40;;;;;;5037575;28;20025;-64
2022/11/29 11:42:38;;;;;;;23.42;9.82;;;11.20;84.40;;;;;;5052945;28;20320;-64
2022/11/29 11:45:09;;;;;;;21.90;9.85;;;11.20;84.40;;;;;;5036533;28;20033;-65
2022/11/29 11:47:40;;;;;;;21.00;10.55;;;11.20;84.40;;;;;;5037474;28;20118;-64
2022/11/29 11:50:12;;;;;;;23.75;10.32;;;11.20;84.30;;;;;;5036766;28;20408;-64
2022/11/29 11:52:40;;;;;;;27.70;10.85;;;11.20;84.40;;;;;;5036296;28;20030;-65
2022/11/29 11:55:32;;;;;;;19.33;9.25;;;11.20;84.40;;;;;;5019701;28;20124;-64
2022/11/29 11:58:14;;;;;;;24.05;10.13;;;11.20;84.30;;;;;;5036062;28;20120;-64
2022/11/29 12:00:53;;;;;;;22.48;9.30;;;11.30;84.40;;;;;;5037369;28;20300;-65
2022/11/29 12:03:46;;;;;;;22.92;9.85;;;11.30;84.30;;;;;;5036789;28;20044;-66
2022/11/29 12:06:24;;;;;;;23.73;9.95;;;11.40;84.90;;;;;;5036072;28;20026;-64
2022/11/29 12:08:53;;;;;;;24.00;10.30;;;11.40;84.20;;;;;;5037053;28;20037;-64
2022/11/29 12:11:19;;;;;;;25.40;10.18;;;11.40;84.20;;;;;;5036967;28;20029;-64
2022/11/29 12:13:51;;;;;;;22.13;9.80;;;11.40;84.20;;;;;;5034821;28;20049;-64
2022/11/29 12:16:26;;;;;;;22.35;10.10;;;11.40;84.30;;;;;;5037289;28;20349;-64
2022/11/29 12:19:01;;;;;;;23.42;10.50;;;11.40;84.20;;;;;;5036897;28;20399;-65
2022/11/29 12:21:33;;;;;;;21.40;10.25;;;11.40;84.20;;;;;;5036987;28;20065;-64
2022/11/29 12:24:02;;;;;;;24.65;10.82;;;11.40;84.20;;;;;;5036949;28;20029;-64
2022/11/29 12:26:35;;;;;;;24.52;10.10;;;11.40;84.20;;;;;;5037003;28;20014;-64
2022/11/29 12:29:01;;;;;;;23.38;11.57;;;11.40;84.20;;;;;;5036368;28;20410;-64
2022/11/29 12:31:45;;;;;;;26.58;10.85;;;11.40;84.20;;;;;;5036449;28;20104;-64
2022/11/29 12:34:29;;;;;;;24.25;10.32;;;11.40;84.20;;;;;;5036658;28;20477;-64
2022/11/29 12:37:25;;;;;;;27.83;11.50;;;11.40;84.10;;;;;;5035843;28;20056;-64
2022/11/29 12:39:58;;;;;;;22.30;10.10;;;11.40;84.10;;;;;;5036403;28;20026;-65
2022/11/29 12:42:28;;;;;;;27.27;10.63;;;11.40;84.10;;;;;;5036534;28;20033;-64
2022/11/29 12:45:33;;;;;;;24.93;10.77;;;11.50;84.10;;;;;;5035627;28;20493;-64
2022/11/29 12:48:36;;;;;;;27.42;11.80;;;11.50;84.00;;;;;;5035505;28;20269;-64
2022/11/29 12:51:15;;;;;;;23.30;10.07;;;11.50;84.00;;;;;;5036673;28;20029;-64
2022/11/29 12:54:18;;;;;;;25.70;11.80;;;11.50;84.00;;;;;;5034927;28;20135;-65
2022/11/29 12:56:57;;;;;;;24.52;11.00;;;11.40;84.00;;;;;;5035465;28;20029;-64
2022/11/29 12:59:35;;;;;;;21.48;10.73;;;11.40;84.10;;;;;;5036000;28;20028;-65
2022/11/29 13:02:45;;;;;;;26.88;12.88;;;11.40;84.00;;;;;;5035886;28;20121;-65
2022/11/29 13:05:52;;;;;;;24.90;11.85;;;11.50;84.00;;;;;;5034575;28;20113;-65
2022/11/29 13:08:52;;;;;;;24.52;11.85;;;11.50;84.10;;;;;;5035164;28;20377;-64
2022/11/29 13:11:23;;;;;;;24.52;10.57;;;11.40;84.00;;;;;;5034260;28;20049;-65
2022/11/29 13:13:55;;;;;;;22.05;11.32;;;11.40;84.00;;;;;;5017371;28;20533;-65
2022/11/29 13:16:50;;;;;;;26.17;11.73;;;11.50;84.10;;;;;;5034344;28;20128;-65
2022/11/29 13:19:42;;;;;;;26.50;12.05;;;11.40;83.90;;;;;;5017477;28;20100;-65
2022/11/29 13:22:31;;;;;;;;;;;11.40;84.00;;;;;;5033441;28;20128;-65
2022/11/29 13:25:17;;;;;;;25.33;10.38;;;11.40;83.90;;;;;;5022701;28;19951;-65
2022/11/29 13:27:59;;;;;;;25.52;10.50;;;11.40;83.90;;;;;;5017318;28;20516;-65